Time;durP1;ratioP1;P1;durP2;ratioP2;P2;SDS_P1;SDS_P2;PMS_P1;PMS_P2;Temp;Humidity;BMP_temperature;BMP_pressure;BME280_temperature;BME280_humidity;BME280_pressure;Samples;Min_cycle;Max_cycle;Signal;HPM_P1;HPM_P2
2024/01/15 00:01:49;;;;;;;12.17;6.40;;;;;;;0.35;100.00;99792.28;10395473;28;20053;-75
2024/01/15 00:06:49;;;;;;;14.03;7.07;;;;;;;0.40;100.00;99788.91;10396469;28;20033;-74
2024/01/15 00:11:50;;;;;;;13.50;8.50;;;;;;;0.35;100.00;99761.63;10390914;28;20042;-76
2024/01/15 00:16:51;;;;;;;10.13;9.17;;;;;;;0.30;100.00;99769.59;10413620;28;20052;-75
2024/01/15 00:21:51;;;;;;;19.57;10.90;;;;;;;0.20;100.00;99770.84;10407742;28;20411;-74
2024/01/15 00:26:53;;;;;;;11.90;10.70;;;;;;;0.18;100.00;99748.59;10363214;28;20044;-76
2024/01/15 00:31:54;;;;;;;18.50;12.20;;;;;;;0.09;100.00;99741.75;10404159;28;20033;-75
2024/01/15 00:36:54;;;;;;;10.60;10.10;;;;;;;-0.09;100.00;99725.38;10404165;28;20430;-75
2024/01/15 00:41:54;;;;;;;11.20;10.30;;;;;;;-0.14;100.00;99714.38;10409310;28;20441;-75
2024/01/15 00:46:55;;;;;;;12.70;11.70;;;;;;;-0.16;100.00;99720.00;10419796;28;20551;-75
2024/01/15 00:51:55;;;;;;;15.97;14.03;;;;;;;-0.21;100.00;99715.22;10421408;28;20456;-74
2024/01/15 00:56:56;;;;;;;25.97;12.83;;;;;;;-0.16;100.00;99702.94;10412038;28;20105;-73
2024/01/15 01:01:56;;;;;;;12.97;11.73;;;;;;;-0.06;100.00;99684.38;10412579;28;20053;-74
2024/01/15 01:06:57;;;;;;;15.47;12.33;;;;;;;0.03;100.00;99690.38;10419936;28;20041;-74
2024/01/15 01:11:57;;;;;;;12.23;11.13;;;;;;;0.17;100.00;99675.75;10420278;28;20115;-74
2024/01/15 01:16:58;;;;;;;12.13;11.13;;;;;;;0.28;100.00;99695.88;10421921;28;20040;-74
2024/01/15 01:21:58;;;;;;;20.10;11.53;;;;;;;0.30;100.00;99699.19;10416249;28;20037;-74
2024/01/15 01:26:58;;;;;;;12.27;11.10;;;;;;;0.33;100.00;99698.75;10419629;28;20433;-74
2024/01/15 01:31:59;;;;;;;12.70;11.50;;;;;;;0.15;100.00;99675.94;10419136;28;20433;-74
2024/01/15 01:37:00;;;;;;;13.10;11.17;;;;;;;0.27;100.00;99680.66;10391970;28;20111;-70
2024/01/15 01:42:00;;;;;;;12.77;11.43;;;;;;;0.31;100.00;99681.91;10402468;28;20049;-74
2024/01/15 01:47:01;;;;;;;15.10;12.20;;;;;;;0.18;100.00;99648.44;10412024;28;20049;-74
2024/01/15 01:52:02;;;;;;;13.63;12.73;;;;;;;0.10;100.00;99640.56;10399240;28;20048;-73
2024/01/15 01:57:03;;;;;;;18.20;13.50;;;;;;;0.13;100.00;99655.56;10400964;28;20121;-74
2024/01/15 02:02:03;;;;;;;14.93;13.73;;;;;;;0.23;100.00;99653.22;10398818;28;20045;-75
2024/01/15 02:07:04;;;;;;;18.47;14.00;;;;;;;0.20;100.00;99662.59;10417721;28;20046;-76
2024/01/15 02:12:05;;;;;;;20.00;13.23;;;;;;;0.24;100.00;99656.75;10417787;28;20038;-75
2024/01/15 02:17:06;;;;;;;18.50;15.33;;;;;;;0.36;100.00;99665.84;10415535;28;20041;-77
2024/01/15 02:22:06;;;;;;;16.73;15.13;;;;;;;0.33;100.00;99658.16;10418421;28;20048;-76
2024/01/15 02:27:07;;;;;;;22.87;15.93;;;;;;;0.25;100.00;99659.25;10407992;28;20041;-76
2024/01/15 02:32:08;;;;;;;21.87;13.50;;;;;;;0.28;100.00;99647.16;10416312;28;20125;-77
2024/01/15 02:37:09;;;;;;;17.93;14.30;;;;;;;0.47;100.00;99657.03;10416923;28;20055;-78
2024/01/15 02:42:09;;;;;;;22.27;15.13;;;;;;;0.43;100.00;99633.31;10419145;28;20046;-76
2024/01/15 02:47:10;;;;;;;18.43;13.70;;;;;;;0.57;100.00;99638.41;10416821;28;20038;-75
2024/01/15 02:52:10;;;;;;;15.57;12.37;;;;;;;0.55;100.00;99629.69;10415319;28;20186;-76
2024/01/15 02:57:11;;;;;;;18.63;13.05;;;;;;;0.64;100.00;99645.66;10396650;28;20037;-76
2024/01/15 03:02:11;;;;;;;23.30;14.40;;;;;;;0.53;100.00;99656.16;10415529;28;20040;-76
2024/01/15 03:07:12;;;;;;;13.67;12.00;;;;;;;0.53;100.00;99661.56;10405651;28;20061;-76
2024/01/15 03:12:12;;;;;;;14.63;10.90;;;;;;;0.15;100.00;99605.56;10432234;28;20037;-76
2024/01/15 03:17:13;;;;;;;14.27;11.37;;;;;;;0.46;100.00;99670.78;10413463;28;20489;-75
2024/01/15 03:22:13;;;;;;;21.73;10.93;;;;;;;0.40;100.00;99683.31;10415513;28;20033;-75
2024/01/15 03:27:14;;;;;;;10.80;9.80;;;;;;;0.46;100.00;99687.03;10404964;28;20060;-75
2024/01/15 03:32:16;;;;;;;16.57;11.00;;;;;;;0.56;100.00;99690.94;10395911;28;20045;-77
2024/01/15 03:37:16;;;;;;;14.70;9.70;;;;;;;0.53;100.00;99694.06;10415054;28;20033;-73
2024/01/15 03:42:17;;;;;;;15.50;9.40;;;;;;;0.63;100.00;99703.59;10415536;28;20033;-76
2024/01/15 03:47:17;;;;;;;9.50;8.50;;;;;;;0.65;100.00;99690.69;10396394;28;20041;-75
2024/01/15 03:52:17;;;;;;;15.23;9.77;;;;;;;0.62;100.00;99686.53;10383760;28;20599;-78
2024/01/15 03:57:18;;;;;;;15.13;10.73;;;;;;;0.50;100.00;99689.09;10410256;28;20037;-75
2024/01/15 04:02:18;;;;;;;20.00;11.10;;;;;;;0.39;100.00;99681.66;10393273;28;20580;-74
2024/01/15 04:07:19;;;;;;;13.83;9.27;;;;;;;0.35;100.00;99667.72;10408590;28;20095;-74
2024/01/15 04:12:19;;;;;;;16.30;10.60;;;;;;;0.43;100.00;99680.16;10413405;28;20041;-74
2024/01/15 04:17:21;;;;;;;16.60;13.00;;;;;;;0.34;100.00;99668.75;10432946;28;20935;-75
2024/01/15 04:22:23;;;;;;;18.13;12.53;;;;;;;0.39;100.00;99676.22;10419496;28;20125;-77
2024/01/15 04:27:24;;;;;;;17.63;13.40;;;;;;;0.33;100.00;99650.03;10388096;28;20042;-77
2024/01/15 04:32:24;;;;;;;22.20;13.47;;;;;;;0.32;100.00;99662.75;10423089;28;20046;-76
2024/01/15 04:37:25;;;;;;;17.53;12.43;;;;;;;0.31;100.00;99647.56;10417914;28;20038;-76
2024/01/15 04:42:25;;;;;;;13.18;11.32;;;;;;;0.31;100.00;99630.47;10427677;28;20075;-78
2024/01/15 04:47:26;;;;;;;15.73;12.00;;;;;;;0.35;100.00;99658.75;10416319;28;20044;-77
2024/01/15 04:52:26;;;;;;;12.47;11.17;;;;;;;0.30;100.00;99640.47;10394634;28;20330;-78
2024/01/15 04:57:27;;;;;;;14.10;10.80;;;;;;;0.34;100.00;99643.56;10419371;28;20449;-76
2024/01/15 05:02:27;;;;;;;17.88;12.55;;;;;;;0.38;100.00;99652.94;10419458;28;20040;-75
2024/01/15 05:07:28;;;;;;;21.43;12.13;;;;;;;0.25;100.00;99634.03;10419899;28;20057;-76
2024/01/15 05:12:28;;;;;;;15.20;10.90;;;;;;;0.38;100.00;99663.75;10395110;28;20048;-75
2024/01/15 05:17:28;;;;;;;12.10;9.43;;;;;;;0.47;100.00;99673.25;10418586;28;20100;-75
2024/01/15 05:22:29;;;;;;;10.47;9.83;;;;;;;0.37;100.00;99654.81;10418665;28;20029;-77
2024/01/15 05:27:29;;;;;;;12.13;10.20;;;;;;;0.23;100.00;99628.00;10418475;28;20041;-77
2024/01/15 05:32:30;;;;;;;14.50;10.93;;;;;;;0.47;100.00;99673.25;10413919;28;20053;-77
2024/01/15 05:37:30;;;;;;;12.73;10.50;;;;;;;0.43;100.00;99661.22;10390902;28;20037;-77
2024/01/15 05:42:31;;;;;;;14.80;11.37;;;;;;;0.43;100.00;99650.38;10416767;28;20096;-73
2024/01/15 05:47:32;;;;;;;12.70;10.17;;;;;;;0.36;100.00;99665.84;10416889;28;20052;-76
2024/01/15 05:52:32;;;;;;;13.03;10.80;;;;;;;0.22;100.00;99665.09;10396209;28;20050;-77
2024/01/15 05:57:33;;;;;;;11.13;10.07;;;;;;;0.12;100.00;99649.31;10415208;28;20076;-76
2024/01/15 06:02:33;;;;;;;13.03;9.63;;;;;;;0.15;100.00;99645.34;10393376;28;20131;-76
2024/01/15 06:07:35;;;;;;;22.58;10.85;;;;;;;0.18;100.00;99642.19;10400591;28;20056;-76
2024/01/15 06:12:35;;;;;;;9.00;7.97;;;;;;;0.10;100.00;99632.44;10414121;28;20042;-76
2024/01/15 06:17:37;;;;;;;8.00;7.20;;;;;;;0.13;100.00;99645.56;10382172;28;20064;-76
2024/01/15 06:22:39;;;;;;;9.20;7.00;;;;;;;0.13;100.00;99633.91;10432300;28;20101;-78
2024/01/15 06:27:39;;;;;;;8.87;8.20;;;;;;;0.01;100.00;99636.47;10406360;28;20114;-78
2024/01/15 06:32:40;;;;;;;13.17;8.73;;;;;;;0.04;100.00;99646.03;10391460;28;20844;-79
2024/01/15 06:37:40;;;;;;;28.20;8.40;;;;;;;0.01;100.00;99651.88;10405865;28;20114;-77
2024/01/15 06:42:41;;;;;;;17.57;8.60;;;;;;;-0.49;100.00;99585.69;10415057;28;20037;-77
2024/01/15 06:47:41;;;;;;;13.23;10.30;;;;;;;-0.28;100.00;99621.63;10410008;28;20046;-77
2024/01/15 06:52:42;;;;;;;17.00;9.37;;;;;;;-0.28;100.00;99645.97;10413531;28;20044;-80
2024/01/15 06:57:43;;;;;;;17.13;10.03;;;;;;;-0.30;100.00;99656.97;10423130;28;20041;-77
2024/01/15 07:02:43;;;;;;;19.83;10.40;;;;;;;-0.33;100.00;99630.38;10430460;28;20057;-77
2024/01/15 07:07:43;;;;;;;13.80;8.70;;;;;;;-0.24;100.00;99637.19;10399036;28;20033;-78
2024/01/15 07:12:44;;;;;;;23.63;11.43;;;;;;;-0.09;100.00;99647.75;10393946;28;20072;-76
2024/01/15 07:17:44;;;;;;;17.17;10.23;;;;;;;-0.09;100.00;99646.91;10414671;28;20029;-77
2024/01/15 07:22:45;;;;;;;19.53;12.60;;;;;;;-0.19;100.00;99647.38;10416084;28;20042;-73
2024/01/15 07:27:46;;;;;;;23.40;13.20;;;;;;;-0.24;100.00;99629.06;10431177;28;20056;-77
2024/01/15 07:32:47;;;;;;;19.70;13.17;;;;;;;-0.27;100.00;99634.94;10407418;28;20120;-75
2024/01/15 07:37:48;;;;;;;15.70;12.53;;;;;;;-0.37;100.00;99633.69;10414753;28;20097;-75
2024/01/15 07:42:48;;;;;;;27.10;13.27;;;;;;;-0.43;100.00;99624.59;10413310;28;20030;-75
2024/01/15 07:47:49;;;;;;;15.13;8.70;;;;;;;-0.35;100.00;99637.03;10403111;28;20034;-75
2024/01/15 07:52:49;;;;;;;13.37;9.37;;;;;;;-0.24;100.00;99641.78;10394846;28;20064;-75
2024/01/15 07:57:51;;;;;;;17.00;10.98;;;;;;;-0.18;100.00;99642.81;10404754;28;20101;-74
2024/01/15 08:02:53;;;;;;;23.07;11.10;;;;;;;-0.27;100.00;99609.75;10393406;28;20037;-75
2024/01/15 08:07:53;;;;;;;15.07;10.97;;;;;;;-0.32;100.00;99615.78;10379488;28;20547;-75
2024/01/15 08:12:53;;;;;;;13.57;11.03;;;;;;;-0.72;100.00;99578.09;10393968;28;20097;-76
2024/01/15 08:17:54;;;;;;;16.00;12.13;;;;;;;-0.21;100.00;99644.03;10379266;28;20108;-77
2024/01/15 08:22:55;;;;;;;26.83;12.10;;;;;;;-0.18;100.00;99642.81;10377884;28;20069;-76
2024/01/15 08:27:56;;;;;;;20.97;10.57;;;;;;;-0.22;100.00;99629.69;10392534;28;20049;-75
2024/01/15 08:32:57;;;;;;;18.77;10.73;;;;;;;-0.11;100.00;99628.19;10388293;28;20033;-76
2024/01/15 08:37:58;;;;;;;28.60;16.57;;;;;;;-0.02;100.00;99637.72;10408942;28;20093;-77
2024/01/15 08:42:58;;;;;;;14.73;10.87;;;;;;;0.07;100.00;99635.59;10377371;28;20042;-76
2024/01/15 08:47:59;;;;;;;21.27;11.73;;;;;;;0.10;100.00;99624.34;10412242;28;20041;-77
2024/01/15 08:52:59;;;;;;;14.63;11.88;;;;;;;0.05;100.00;99634.16;10393512;28;20083;-77
2024/01/15 08:58:00;;;;;;;13.80;10.60;;;;;;;-0.12;100.00;99631.94;10394717;28;20096;-76
2024/01/15 09:03:02;;;;;;;12.10;10.80;;;;;;;0.02;100.00;99651.63;10385651;28;20140;-77
2024/01/15 09:08:02;;;;;;;12.43;10.97;;;;;;;0.03;100.00;99642.50;10416604;28;20057;-76
2024/01/15 09:13:04;;;;;;;12.03;10.97;;;;;;;0.07;100.00;99657.25;10400558;28;20045;-76
2024/01/15 09:18:05;;;;;;;12.93;11.63;;;;;;;0.02;100.00;99657.06;10417910;28;20049;-77
2024/01/15 09:23:05;;;;;;;11.47;9.67;;;;;;;-0.06;100.00;99662.75;10425268;28;20041;-76
2024/01/15 09:28:06;;;;;;;11.50;9.57;;;;;;;-0.18;100.00;99650.91;10398244;28;20507;-76
2024/01/15 09:33:07;;;;;;;11.27;10.27;;;;;;;-0.14;100.00;99635.94;10375098;28;20052;-77
2024/01/15 09:38:07;;;;;;;11.03;10.20;;;;;;;-0.15;100.00;99621.53;10384627;28;20033;-77
2024/01/15 09:43:08;;;;;;;11.70;11.00;;;;;;;-0.07;100.00;99628.59;10415955;28;20045;-76
2024/01/15 09:48:08;;;;;;;10.90;10.20;;;;;;;0.03;100.00;99634.38;10399821;28;20041;-76
2024/01/15 09:53:09;;;;;;;11.67;10.67;;;;;;;0.08;100.00;99626.41;10399144;28;20041;-76
2024/01/15 09:58:09;;;;;;;12.27;11.10;;;;;;;0.21;100.00;99630.97;10384729;28;20046;-77
2024/01/15 10:03:11;;;;;;;13.53;10.60;;;;;;;0.22;100.00;99631.78;10409319;28;20045;-76
2024/01/15 10:08:11;;;;;;;9.70;8.70;;;;;;;0.29;100.00;99641.53;10390433;28;20579;-76
2024/01/15 10:13:12;;;;;;;34.85;26.67;;;;;;;0.46;100.00;99646.44;10397422;28;20114;-76
2024/01/15 10:18:12;;;;;;;26.43;23.17;;;;;;;0.44;100.00;99633.09;10396935;28;20033;-76
2024/01/15 10:23:14;;;;;;;12.33;11.10;;;;;;;0.55;100.00;99639.69;10415742;28;20030;-77
2024/01/15 10:28:14;;;;;;;10.73;8.57;;;;;;;0.76;100.00;99633.06;10396391;28;20072;-77
2024/01/15 10:33:16;;;;;;;18.85;13.15;;;;;;;0.56;100.00;99574.47;10381046;28;20046;-76
2024/01/15 10:38:18;;;;;;;9.67;8.53;;;;;;;0.71;100.00;99622.91;10411071;28;20053;-74
2024/01/15 10:43:18;;;;;;;14.05;7.68;;;;;;;0.49;100.00;99605.34;10392258;28;20115;-74
2024/01/15 10:48:22;;;;;;;8.53;7.43;;;;;;;0.94;100.00;99613.34;10394869;28;20041;-76
2024/01/15 10:53:23;;;;;;;7.30;6.57;;;;;;;1.27;100.00;99618.44;10428019;28;20061;-77
2024/01/15 10:58:23;;;;;;;8.30;7.53;;;;;;;1.05;100.00;99623.44;10403562;28;20048;-76
2024/01/15 11:03:24;;;;;;;11.53;8.27;;;;;;;0.71;100.00;99627.50;10378720;28;20033;-77
2024/01/15 11:08:24;;;;;;;15.37;10.07;;;;;;;0.47;100.00;99619.09;10383882;28;20095;-76
2024/01/15 11:13:31;;;;;;;13.03;10.50;;;;;;;0.33;100.00;99625.66;10393230;28;20057;-76
2024/01/15 11:18:32;;;;;;;13.83;12.60;;;;;;;0.25;100.00;99631.31;10410156;28;20039;-77
2024/01/15 11:23:48;;;;;;;16.67;12.80;;;;;;;0.01;100.00;99628.34;10394938;28;20120;-76
2024/01/15 11:28:48;;;;;;;12.80;11.70;;;;;;;-0.14;100.00;99617.00;10377382;28;20559;-76
2024/01/15 11:33:49;;;;;;;17.97;11.90;;;;;;;-0.09;100.00;99627.97;10409624;28;20091;-77
2024/01/15 11:38:50;;;;;;;16.60;11.60;;;;;;;-0.15;100.00;99618.84;10375719;28;20041;-77
2024/01/15 11:43:50;;;;;;;11.52;10.65;;;;;;;0.15;100.00;99632.66;10390506;28;20482;-77
2024/01/15 11:48:51;;;;;;;15.93;11.10;;;;;;;0.25;100.00;99620.50;10390338;28;20687;-77
2024/01/15 11:53:52;;;;;;;11.33;10.20;;;;;;;0.42;100.00;99629.78;10378849;28;20068;-77
2024/01/15 11:58:52;;;;;;;12.97;8.43;;;;;;;0.73;100.00;99628.94;10377073;28;20405;-73
2024/01/15 12:03:53;;;;;;;9.17;8.50;;;;;;;1.00;100.00;99634.94;10395961;28;20041;-77
2024/01/15 12:09:06;;;;;;;10.90;9.87;;;;;;;1.04;100.00;99623.69;10374339;28;20075;-77
2024/01/15 12:14:07;;;;;;;10.17;9.47;;;;;;;0.87;100.00;99632.38;10392928;28;20037;-78
2024/01/15 12:19:07;;;;;;;11.43;10.47;;;;;;;0.77;100.00;99629.31;10376794;28;20438;-78
2024/01/15 12:24:08;;;;;;;9.57;8.87;;;;;;;0.86;100.00;99649.66;10411769;28;20040;-79
2024/01/15 12:29:08;;;;;;;9.60;8.80;;;;;;;0.89;100.00;99660.06;10376732;28;20064;-77
2024/01/15 12:34:09;;;;;;;10.33;9.60;;;;;;;0.84;100.00;99645.50;10391374;28;20124;-79
2024/01/15 12:39:13;;;;;;;8.30;7.80;;;;;;;0.91;100.00;99671.53;10414100;28;20096;-78
2024/01/15 12:44:13;;;;;;;8.80;7.97;;;;;;;1.08;100.00;99679.09;10412071;28;20096;-78
2024/01/15 12:49:14;;;;;;;7.80;7.00;;;;;;;1.39;100.00;99676.31;10402269;28;20072;-78
2024/01/15 12:54:14;;;;;;;7.37;5.87;;;;;;;1.74;100.00;99681.16;10396600;28;20045;-80
2024/01/15 12:59:15;;;;;;;6.85;5.50;;;;;;;1.77;100.00;99633.75;10403314;28;20052;-80
2024/01/15 13:04:24;;;;;;;8.57;5.30;;;;;;;2.65;100.00;99683.13;10419467;28;20037;-81
2024/01/15 13:09:25;;;;;;;6.00;3.47;;;;;;;2.88;100.00;99690.53;10400797;28;20079;-82
2024/01/15 13:14:25;;;;;;;4.78;3.47;;;;;;;2.80;100.00;99705.28;10409804;28;20033;-81
2024/01/15 13:19:27;;;;;;;3.30;2.58;;;;;;;3.13;100.00;99696.59;10394276;28;20046;-79
2024/01/15 13:24:27;;;;;;;5.18;2.92;;;;;;;3.19;100.00;99711.97;10401447;28;20208;-78
2024/01/15 13:29:28;;;;;;;4.72;2.10;;;;;;;3.20;100.00;99723.69;10416911;28;20450;-79
2024/01/15 13:34:28;;;;;;;5.10;2.45;;;;;;;2.89;100.00;99722.91;10416697;28;20057;-78
2024/01/15 13:39:33;;;;;;;8.30;2.65;;;;;;;2.77;100.00;99724.75;10414993;28;20038;-79
2024/01/15 13:44:33;;;;;;;8.98;3.92;;;;;;;2.52;100.00;99746.63;10418143;28;20072;-79
2024/01/15 13:49:34;;;;;;;9.60;4.97;;;;;;;2.10;100.00;99733.78;10415718;28;20049;-79
2024/01/15 13:54:34;;;;;;;6.63;5.77;;;;;;;1.90;100.00;99763.03;10415728;28;20041;-79
2024/01/15 13:59:35;;;;;;;5.75;5.10;;;;;;;1.65;100.00;99788.31;10388996;28;20048;-79
2024/01/15 14:04:36;;;;;;;8.93;8.23;;;;;;;1.01;100.00;99763.16;10393359;28;20151;-80
2024/01/15 14:09:37;;;;;;;11.33;8.40;;;;;;;0.83;100.00;99795.56;10406441;28;20041;-81
2024/01/15 14:14:38;;;;;;;9.77;8.77;;;;;;;0.73;100.00;99812.31;10408841;28;20573;-81
2024/01/15 14:19:38;;;;;;;8.43;7.73;;;;;;;0.60;100.00;99805.91;10415190;28;20041;-80
2024/01/15 14:24:38;;;;;;;7.70;7.30;;;;;;;0.51;100.00;99820.72;10415236;28;20045;-79
2024/01/15 14:29:39;;;;;;;8.13;7.57;;;;;;;0.32;100.00;99794.56;10431494;28;20041;-79
2024/01/15 14:34:39;;;;;;;8.80;8.13;;;;;;;0.44;100.00;99809.09;10431203;28;20108;-78
2024/01/15 14:39:40;;;;;;;9.03;8.20;;;;;;;0.19;100.00;99787.34;10396822;28;20045;-79
2024/01/15 14:44:40;;;;;;;9.87;8.93;;;;;;;0.30;100.00;99819.16;10414311;28;20042;-77
2024/01/15 14:49:41;;;;;;;14.93;9.40;;;;;;;0.30;100.00;99834.56;10413470;28;20033;-74
2024/01/15 14:54:42;;;;;;;12.57;9.57;;;;;;;0.16;100.00;99820.22;10416099;28;20048;-77
2024/01/15 14:59:42;;;;;;;11.60;8.27;;;;;;;0.17;100.00;99792.94;10415504;28;20064;-78
2024/01/15 15:04:43;;;;;;;7.77;6.80;;;;;;;0.38;100.00;99805.38;10413670;28;20037;-77
2024/01/15 15:09:43;;;;;;;7.43;6.27;;;;;;;0.43;100.00;99815.56;10413615;28;20519;-78
2024/01/15 15:14:44;;;;;;;9.47;6.83;;;;;;;0.46;100.00;99839.50;10413609;28;20044;-77
2024/01/15 15:19:44;;;;;;;10.17;6.10;;;;;;;0.50;100.00;99857.00;10413576;28;20052;-77
2024/01/15 15:24:45;;;;;;;10.97;7.10;;;;;;;0.06;100.00;99795.47;10415184;28;20060;-76
2024/01/15 15:29:45;;;;;;;10.17;6.17;;;;;;;0.29;100.00;99849.13;10414443;28;20433;-77
2024/01/15 15:34:46;;;;;;;6.30;5.90;;;;;;;0.27;100.00;99857.47;10428999;28;20076;-78
2024/01/15 15:39:46;;;;;;;7.70;6.90;;;;;;;0.34;100.00;99873.69;10427731;28;20052;-73
2024/01/15 15:44:47;;;;;;;7.73;7.13;;;;;;;0.28;100.00;99875.38;10412849;28;20055;-77
2024/01/15 15:49:47;;;;;;;10.77;8.53;;;;;;;0.12;100.00;99859.59;10428148;28;20037;-77
2024/01/15 15:54:48;;;;;;;16.57;10.60;;;;;;;0.17;100.00;99884.16;10391571;28;20048;-77
2024/01/15 15:59:48;;;;;;;11.47;10.27;;;;;;;0.14;100.00;99876.44;10412213;28;20044;-77
2024/01/15 16:04:49;;;;;;;16.73;14.83;;;;;;;0.13;100.00;99882.91;10409595;28;20041;-77
2024/01/15 16:09:49;;;;;;;18.37;15.13;;;;;;;0.13;100.00;99908.09;10408125;28;20060;-76
2024/01/15 16:14:49;;;;;;;17.60;15.77;;;;;;;-0.05;100.00;99892.47;10390406;28;20045;-75
2024/01/15 16:19:50;;;;;;;16.93;14.90;;;;;;;-0.16;100.00;99895.84;10425223;28;20030;-76
2024/01/15 16:24:50;;;;;;;14.93;13.60;;;;;;;-0.13;100.00;99900.00;10411476;28;20045;-75
2024/01/15 16:29:51;;;;;;;13.80;12.45;;;;;;;-0.05;100.00;99907.91;10413653;28;20041;-75
2024/01/15 16:34:51;;;;;;;15.70;13.02;;;;;;;-0.02;100.00;99919.16;10413958;28;20046;-74
2024/01/15 16:39:52;;;;;;;12.90;12.20;;;;;;;-0.17;100.00;99904.16;10414541;28;20044;-75
2024/01/15 16:44:52;;;;;;;13.93;13.03;;;;;;;-0.24;100.00;99920.38;10405710;28;20042;-75
2024/01/15 16:49:53;;;;;;;13.60;12.50;;;;;;;-0.34;100.00;99939.72;10410871;28;20074;-75
2024/01/15 16:54:54;;;;;;;13.25;11.98;;;;;;;-0.35;100.00;99943.47;10410401;28;20052;-75
2024/01/15 16:59:54;;;;;;;13.60;12.70;;;;;;;-0.43;100.00;99954.47;10416728;28;20060;-76
2024/01/15 17:04:55;;;;;;;13.00;11.87;;;;;;;-0.47;100.00;99964.03;10428038;28;20398;-76
2024/01/15 17:09:56;;;;;;;12.83;12.03;;;;;;;-0.49;100.00;99974.22;10411132;28;20068;-72
2024/01/15 17:14:56;;;;;;;12.70;11.73;;;;;;;-0.56;100.00;99974.19;10410815;28;20128;-70
2024/01/15 17:19:57;;;;;;;12.10;11.27;;;;;;;-0.83;100.00;99928.19;10415131;28;20056;-76
2024/01/15 17:25:00;;;;;;;13.27;11.93;;;;;;;-0.48;100.00;99974.00;10417334;28;20433;-76
2024/01/15 17:30:01;;;;;;;12.67;11.37;;;;;;;-0.40;100.00;99978.41;10401849;28;20041;-78
2024/01/15 17:35:01;;;;;;;11.50;10.70;;;;;;;-0.45;100.00;99989.84;10414312;28;20047;-78
2024/01/15 17:40:03;;;;;;;10.60;9.80;;;;;;;-0.47;100.00;100007.31;10415816;28;20041;-76
2024/01/15 17:45:06;;;;;;;9.80;8.87;;;;;;;-0.51;100.00;100006.03;10416859;28;20401;-76
2024/01/15 17:50:07;;;;;;;8.50;8.10;;;;;;;-0.31;100.00;100023.16;10415257;28;20339;-76
2024/01/15 17:55:09;;;;;;;7.70;7.17;;;;;;;-0.29;100.00;100029.19;10401409;28;20058;-75
2024/01/15 18:00:10;;;;;;;9.40;8.63;;;;;;;-0.21;100.00;100038.97;10405136;28;20049;-78
2024/01/15 18:05:11;;;;;;;8.00;7.50;;;;;;;-0.36;100.00;100025.63;10423795;28;20415;-79
2024/01/15 18:10:11;;;;;;;10.57;7.80;;;;;;;-0.54;100.00;100012.66;10406938;28;20029;-79
2024/01/15 18:15:12;;;;;;;8.00;7.40;;;;;;;-0.49;100.00;100042.66;10396773;28;20041;-80
2024/01/15 18:20:12;;;;;;;7.90;7.20;;;;;;;-0.64;100.00;100050.91;10402928;28;20045;-77
2024/01/15 18:25:13;;;;;;;7.40;7.00;;;;;;;-0.63;100.00;100047.16;10392302;28;20050;-72
2024/01/15 18:30:14;;;;;;;9.30;8.17;;;;;;;-0.51;100.00;100068.22;10395333;28;20042;-78
2024/01/15 18:35:14;;;;;;;10.77;9.93;;;;;;;-0.45;100.00;100070.13;10397148;28;20410;-78
2024/01/15 18:40:15;;;;;;;13.87;9.97;;;;;;;-0.41;100.00;100076.81;10412589;28;20037;-78
2024/01/15 18:45:16;;;;;;;12.20;10.83;;;;;;;-0.31;100.00;100077.25;10412534;28;20072;-75
2024/01/15 18:50:16;;;;;;;13.27;9.60;;;;;;;-0.30;100.00;100097.84;10417077;28;20153;-77
2024/01/15 18:55:18;;;;;;;11.70;10.43;;;;;;;-0.38;100.00;100092.59;10402649;28;20037;-79
2024/01/15 19:00:20;;;;;;;12.13;10.60;;;;;;;-0.33;100.00;100103.69;10414401;28;20406;-77
2024/01/15 19:05:21;;;;;;;10.40;9.47;;;;;;;-0.28;100.00;100128.22;10415285;28;20387;-76
2024/01/15 19:10:21;;;;;;;10.93;9.90;;;;;;;-0.30;100.00;100124.06;10402302;28;20057;-77
2024/01/15 19:15:22;;;;;;;11.27;9.80;;;;;;;-0.25;100.00;100118.88;10409435;28;20060;-76
2024/01/15 19:20:22;;;;;;;11.47;9.40;;;;;;;-0.32;100.00;100121.56;10405809;28;20038;-77
2024/01/15 19:25:23;;;;;;;11.77;9.97;;;;;;;-0.66;100.00;100068.38;10411145;28;20037;-77
2024/01/15 19:30:23;;;;;;;8.63;8.07;;;;;;;-0.41;100.00;100136.28;10396845;28;20079;-77
2024/01/15 19:35:24;;;;;;;10.17;8.43;;;;;;;-0.52;100.00;100155.78;10413024;28;20037;-77
2024/01/15 19:40:25;;;;;;;9.27;8.60;;;;;;;-0.56;100.00;100165.31;10396903;28;20109;-76
2024/01/15 19:45:26;;;;;;;10.70;9.13;;;;;;;-0.47;100.00;100161.44;10406358;28;20041;-77
2024/01/15 19:50:26;;;;;;;8.80;7.63;;;;;;;-0.35;100.00;100173.34;10406654;28;20049;-79
2024/01/15 19:55:27;;;;;;;9.13;7.07;;;;;;;-0.17;100.00;100188.22;10404262;28;20548;-76
2024/01/15 20:00:27;;;;;;;11.67;6.57;;;;;;;-0.02;100.00;100207.88;10418035;28;20540;-77
2024/01/15 20:05:28;;;;;;;20.63;7.43;;;;;;;0.10;100.00;100203.50;10405751;28;20106;-76
2024/01/15 20:10:28;;;;;;;7.67;6.50;;;;;;;-0.06;100.00;100207.41;10404894;28;20045;-76
2024/01/15 20:15:30;;;;;;;9.43;8.57;;;;;;;-0.18;100.00;100202.78;10391167;28;20087;-76
2024/01/15 20:20:31;;;;;;;8.67;7.73;;;;;;;-0.17;100.00;100231.50;10413728;28;20037;-75
2024/01/15 20:25:32;;;;;;;9.60;7.73;;;;;;;-0.28;100.00;100225.59;10388207;28;20046;-76
2024/01/15 20:30:32;;;;;;;8.60;7.83;;;;;;;-0.29;100.00;100253.72;10404349;28;20053;-78
2024/01/15 20:35:33;;;;;;;8.90;8.07;;;;;;;-0.17;100.00;100263.97;10398168;28;20062;-78
2024/01/15 20:40:33;;;;;;;10.50;9.80;;;;;;;-0.32;100.00;100266.78;10410200;28;20053;-78
2024/01/15 20:45:34;;;;;;;11.00;10.00;;;;;;;-0.49;100.00;100253.56;10410063;28;20045;-78
2024/01/15 20:50:34;;;;;;;11.57;10.80;;;;;;;-0.48;100.00;100276.03;10395735;28;20046;-78
2024/01/15 20:55:35;;;;;;;12.27;11.03;;;;;;;-0.51;100.00;100281.84;10404160;28;20131;-78
2024/01/15 21:00:36;;;;;;;14.83;11.70;;;;;;;-0.58;100.00;100275.53;10405022;28;20473;-78
2024/01/15 21:05:36;;;;;;;12.50;11.50;;;;;;;-0.56;100.00;100270.75;10407808;28;20041;-78
2024/01/15 21:10:37;;;;;;;14.03;12.70;;;;;;;-0.57;100.00;100282.63;10435958;28;20149;-78
2024/01/15 21:15:38;;;;;;;13.37;12.50;;;;;;;-0.62;100.00;100284.06;10382885;28;20061;-78
2024/01/15 21:20:39;;;;;;;13.10;12.30;;;;;;;-0.59;100.00;100301.75;10397791;28;20048;-77
2024/01/15 21:25:39;;;;;;;12.70;11.60;;;;;;;-0.60;100.00;100302.75;10401552;28;20116;-76
2024/01/15 21:30:40;;;;;;;14.17;9.80;;;;;;;-0.49;100.00;100306.81;10384894;28;20038;-76
2024/01/15 21:35:41;;;;;;;10.93;9.93;;;;;;;-0.51;100.00;100320.53;10407585;28;20125;-77
2024/01/15 21:40:42;;;;;;;10.47;9.57;;;;;;;-0.49;100.00;100323.03;10411142;28;20042;-77
2024/01/15 21:45:42;;;;;;;9.97;9.10;;;;;;;-0.66;100.00;100263.84;10416798;28;20068;-76
2024/01/15 21:50:43;;;;;;;9.63;8.93;;;;;;;-0.71;100.00;100298.72;10425536;28;20435;-78
2024/01/15 21:55:43;;;;;;;8.57;7.97;;;;;;;-0.83;100.00;100300.28;10418483;28;20569;-76
2024/01/15 22:00:44;;;;;;;8.77;8.03;;;;;;;-0.79;100.00;100330.47;10413669;28;20498;-76
2024/01/15 22:05:44;;;;;;;8.07;7.47;;;;;;;-0.71;100.00;100354.66;10415385;28;20056;-76
2024/01/15 22:10:45;;;;;;;11.20;8.30;;;;;;;-0.66;100.00;100350.34;10416639;28;20050;-77
2024/01/15 22:15:45;;;;;;;8.10;7.50;;;;;;;-0.97;100.00;100311.97;10418455;28;20037;-76
2024/01/15 22:20:46;;;;;;;10.23;7.50;;;;;;;-0.62;100.00;100378.69;10418241;28;20068;-77
2024/01/15 22:25:46;;;;;;;8.23;7.57;;;;;;;-0.58;100.00;100372.88;10416626;28;20048;-78
2024/01/15 22:30:47;;;;;;;8.87;7.63;;;;;;;-0.61;100.00;100352.47;10412882;28;20501;-77
2024/01/15 22:35:47;;;;;;;8.40;7.90;;;;;;;-0.83;100.00;100370.53;10424930;28;20065;-78
2024/01/15 22:40:47;;;;;;;8.37;7.67;;;;;;;-0.94;100.00;100384.56;10416516;28;20045;-77
2024/01/15 22:45:48;;;;;;;9.87;6.40;;;;;;;-1.09;100.00;100382.75;10414873;28;20048;-75